Time;durP1;ratioP1;P1;durP2;ratioP2;P2;SDS_P1;SDS_P2;PMS_P1;PMS_P2;Temp;Humidity;BMP_temperature;BMP_pressure;BME280_temperature;BME280_humidity;BME280_pressure;Samples;Min_cycle;Max_cycle;Signal;HPM_P1;HPM_P2
2020/12/08 00:01:04;;;;;;;17.23;10.02;;;2.40;99.90;;;;;;5032116;28;20538;-72
2020/12/08 00:03:30;;;;;;;16.63;10.02;;;2.40;99.90;;;;;;5031874;28;20049;-71
2020/12/08 00:05:56;;;;;;;22.02;12.20;;;2.40;99.90;;;;;;5032249;28;20187;-71
2020/12/08 00:08:22;;;;;;;23.60;10.27;;;2.50;99.90;;;;;;5031926;28;20094;-71
2020/12/08 00:10:47;;;;;;;21.05;9.57;;;2.50;99.90;;;;;;5031602;28;20056;-71
2020/12/08 00:13:13;;;;;;;30.27;9.02;;;2.50;99.90;;;;;;5031371;28;20115;-71
2020/12/08 00:15:39;;;;;;;14.05;8.23;;;2.40;99.90;;;;;;5033746;28;20037;-71
2020/12/08 00:18:05;;;;;;;20.13;8.45;;;2.40;99.90;;;;;;5027444;28;20038;-71
2020/12/08 00:20:31;;;;;;;14.10;8.30;;;2.50;99.90;;;;;;5030048;28;20037;-71
2020/12/08 00:22:57;;;;;;;14.88;8.52;;;2.50;99.90;;;;;;5030142;28;20040;-71
2020/12/08 00:25:23;;;;;;;16.73;9.13;;;2.50;99.90;;;;;;5031170;28;20030;-71
2020/12/08 00:27:48;;;;;;;23.83;9.63;;;2.50;99.90;;;;;;5031326;28;20047;-71
2020/12/08 00:30:15;;;;;;;31.88;9.57;;;2.50;99.90;;;;;;5031418;28;20045;-71
2020/12/08 00:32:42;;;;;;;50.55;10.88;;;2.50;99.90;;;;;;5031427;28;20071;-71
2020/12/08 00:35:09;;;;;;;32.47;10.45;;;2.50;99.90;;;;;;5032094;28;20061;-71
2020/12/08 00:37:36;;;;;;;47.13;9.85;;;2.40;99.90;;;;;;5030121;28;20041;-71
2020/12/08 00:40:04;;;;;;;20.95;9.25;;;2.50;99.90;;;;;;5029955;28;20045;-71
2020/12/08 00:42:30;;;;;;;17.13;8.88;;;2.50;99.90;;;;;;5029746;28;20037;-71
2020/12/08 00:44:56;;;;;;;33.45;9.45;;;2.50;99.90;;;;;;5029636;28;20044;-71
2020/12/08 00:47:21;;;;;;;51.70;10.80;;;2.50;99.90;;;;;;5029710;28;20030;-71
2020/12/08 00:49:47;;;;;;;34.28;9.07;;;2.60;99.90;;;;;;5029989;28;20061;-71
2020/12/08 00:52:13;;;;;;;68.00;10.70;;;2.50;99.90;;;;;;5029832;28;20053;-71
2020/12/08 00:54:39;;;;;;;184.95;12.55;;;2.50;99.90;;;;;;5035583;28;20427;-71
2020/12/08 00:57:05;;;;;;;134.80;12.02;;;2.50;99.90;;;;;;5035530;28;20041;-71
2020/12/08 00:59:31;;;;;;;61.35;11.02;;;2.60;99.90;;;;;;5035463;28;20569;-71
2020/12/08 01:02:00;;;;;;;66.75;17.05;;;2.60;99.90;;;;;;5035675;28;20091;-71
2020/12/08 01:04:28;;;;;;;39.78;17.45;;;2.50;99.90;;;;;;5035299;28;20128;-71
2020/12/08 01:06:54;;;;;;;75.03;22.30;;;2.50;99.90;;;;;;5035492;28;20120;-71
2020/12/08 01:09:20;;;;;;;66.10;23.35;;;2.50;99.90;;;;;;5034818;28;20037;-71
2020/12/08 01:11:46;;;;;;;59.78;19.90;;;2.60;99.90;;;;;;5035331;28;20056;-71
2020/12/08 01:14:12;;;;;;;80.38;19.15;;;2.60;99.90;;;;;;5035153;28;20037;-71
2020/12/08 01:16:40;;;;;;;57.63;20.40;;;2.60;99.90;;;;;;5035360;28;20033;-71
2020/12/08 01:19:06;;;;;;;52.97;17.40;;;2.60;99.90;;;;;;5035518;28;20122;-71
2020/12/08 01:21:32;;;;;;;48.75;17.13;;;2.60;99.90;;;;;;5035157;28;20052;-71
2020/12/08 01:23:58;;;;;;;31.67;13.55;;;2.50;99.90;;;;;;5035028;28;20384;-71
2020/12/08 01:26:25;;;;;;;33.95;12.80;;;2.50;99.90;;;;;;5034595;28;20504;-71
2020/12/08 01:28:51;;;;;;;35.42;11.98;;;2.50;99.90;;;;;;5034752;28;20049;-71
2020/12/08 01:31:17;;;;;;;52.70;11.45;;;2.50;99.90;;;;;;5034046;28;20581;-71
2020/12/08 01:33:43;;;;;;;97.68;12.98;;;2.60;99.90;;;;;;5033869;28;20044;-71
2020/12/08 01:36:10;;;;;;;116.95;12.23;;;2.60;99.90;;;;;;5034070;28;20037;-71
2020/12/08 01:38:36;;;;;;;77.60;12.65;;;2.50;99.90;;;;;;5033951;28;20045;-71
2020/12/08 01:41:02;;;;;;;146.10;14.93;;;2.50;99.90;;;;;;5033874;28;20355;-71
2020/12/08 01:43:28;;;;;;;48.90;12.38;;;2.50;99.90;;;;;;5034570;28;20064;-71
2020/12/08 01:45:54;;;;;;;164.63;17.63;;;2.50;99.90;;;;;;5034529;28;20041;-71
2020/12/08 01:48:21;;;;;;;173.10;15.48;;;2.50;99.90;;;;;;5034789;28;20045;-71
2020/12/08 01:50:48;;;;;;;162.13;15.60;;;2.60;99.90;;;;;;5034115;28;20118;-71
2020/12/08 01:53:15;;;;;;;284.25;21.63;;;2.50;99.90;;;;;;5034628;28;20092;-71
2020/12/08 01:55:41;;;;;;;70.80;14.20;;;2.50;99.90;;;;;;5032741;28;20041;-71
2020/12/08 01:58:14;;;;;;;90.90;13.60;;;2.60;99.90;;;;;;5034722;28;20033;-71
2020/12/08 02:00:40;;;;;;;66.05;9.52;;;2.60;99.90;;;;;;5034966;28;20037;-71
2020/12/08 02:03:06;;;;;;;123.82;11.68;;;2.50;99.90;;;;;;5034376;28;20094;-71
2020/12/08 02:05:32;;;;;;;111.10;10.68;;;2.50;99.90;;;;;;5032840;28;20412;-71
2020/12/08 02:07:58;;;;;;;37.95;9.15;;;2.50;99.90;;;;;;5033909;28;20037;-71
2020/12/08 02:10:24;;;;;;;95.95;8.65;;;2.50;99.90;;;;;;5034109;28;20103;-71
2020/12/08 02:12:50;;;;;;;58.35;9.02;;;2.40;99.90;;;;;;5033765;28;20520;-71
2020/12/08 02:15:16;;;;;;;165.50;11.15;;;2.40;99.90;;;;;;5034156;28;20049;-71
2020/12/08 02:17:41;;;;;;;39.30;7.70;;;2.50;99.90;;;;;;5034557;28;20519;-71
2020/12/08 02:20:07;;;;;;;18.92;7.68;;;2.60;99.90;;;;;;5033698;28;20040;-71
2020/12/08 02:22:33;;;;;;;17.23;7.95;;;2.60;99.90;;;;;;5033661;28;20074;-71
2020/12/08 02:24:59;;;;;;;15.15;7.63;;;2.50;99.90;;;;;;5033891;28;20044;-71
2020/12/08 02:27:25;;;;;;;21.13;8.73;;;2.60;99.90;;;;;;5033752;28;20048;-71
2020/12/08 02:29:51;;;;;;;17.52;7.80;;;2.60;99.90;;;;;;5034054;28;20041;-71
2020/12/08 02:32:16;;;;;;;10.50;5.90;;;2.70;99.90;;;;;;5033186;28;20112;-71
2020/12/08 02:34:42;;;;;;;15.40;7.68;;;2.60;99.90;;;;;;5034118;28;20045;-71
2020/12/08 02:37:08;;;;;;;11.98;7.28;;;2.60;99.90;;;;;;5033600;28;20032;-71
2020/12/08 02:39:34;;;;;;;15.95;7.03;;;2.60;99.90;;;;;;5033661;28;20053;-71
2020/12/08 02:42:00;;;;;;;15.15;7.00;;;2.60;99.90;;;;;;5033168;28;20136;-71
2020/12/08 02:44:25;;;;;;;20.50;6.90;;;2.70;99.90;;;;;;5033517;28;20049;-71
2020/12/08 02:46:51;;;;;;;16.60;7.30;;;2.60;99.90;;;;;;5033468;28;20029;-71
2020/12/08 02:49:18;;;;;;;25.23;7.93;;;2.60;99.90;;;;;;5032942;28;20061;-71
2020/12/08 02:51:44;;;;;;;22.27;7.10;;;2.60;99.90;;;;;;5033951;28;20538;-71
2020/12/08 02:54:10;;;;;;;23.00;7.53;;;2.70;99.90;;;;;;5033371;28;20048;-71
2020/12/08 02:56:36;;;;;;;15.82;7.47;;;2.70;99.90;;;;;;5033601;28;20037;-71
2020/12/08 02:59:02;;;;;;;13.38;7.03;;;2.60;99.90;;;;;;5033285;28;20042;-71
2020/12/08 03:01:28;;;;;;;12.18;6.68;;;2.70;99.90;;;;;;5049195;28;20037;-71
2020/12/08 03:03:54;;;;;;;11.82;7.00;;;2.70;99.90;;;;;;5033363;28;20522;-71
2020/12/08 03:06:20;;;;;;;10.57;5.88;;;2.80;99.90;;;;;;5033619;28;20110;-71
2020/12/08 03:08:47;;;;;;;8.73;5.43;;;2.80;99.90;;;;;;5033743;28;20646;-71
2020/12/08 03:11:14;;;;;;;10.45;5.80;;;2.70;99.90;;;;;;5033281;28;20046;-71
2020/12/08 03:13:42;;;;;;;9.93;6.07;;;2.80;99.90;;;;;;5033469;28;20068;-71
2020/12/08 03:16:08;;;;;;;8.85;5.97;;;2.80;99.90;;;;;;5033267;28;20128;-71
2020/12/08 03:18:34;;;;;;;7.65;5.05;;;2.80;99.90;;;;;;5033139;28;20075;-71
2020/12/08 03:20:59;;;;;;;10.70;5.55;;;2.70;99.90;;;;;;5032620;28;20073;-71
2020/12/08 03:23:25;;;;;;;9.60;5.53;;;2.70;99.90;;;;;;5033043;28;20060;-71
2020/12/08 03:25:51;;;;;;;13.15;5.93;;;2.70;99.90;;;;;;5033173;28;20388;-71
2020/12/08 03:28:17;;;;;;;9.82;5.85;;;2.70;99.90;;;;;;5033737;28;20037;-71
2020/12/08 03:30:43;;;;;;;8.93;5.32;;;2.70;99.90;;;;;;5032458;28;20373;-71
2020/12/08 03:33:09;;;;;;;9.55;5.50;;;2.70;99.90;;;;;;5033002;28;20465;-71
2020/12/08 03:35:35;;;;;;;10.15;6.80;;;2.70;99.90;;;;;;5032606;28;20508;-71
2020/12/08 03:38:00;;;;;;;11.98;6.88;;;2.70;99.90;;;;;;5032671;28;20045;-71
2020/12/08 03:40:26;;;;;;;11.93;6.13;;;2.80;99.90;;;;;;5032574;28;20175;-71
2020/12/08 03:42:52;;;;;;;11.65;5.97;;;2.90;99.90;;;;;;5032938;28;20045;-71
2020/12/08 03:45:18;;;;;;;11.65;5.93;;;2.80;99.90;;;;;;5033279;28;20038;-71
2020/12/08 03:47:44;;;;;;;10.00;5.50;;;2.80;99.90;;;;;;5032805;28;20049;-71
2020/12/08 03:50:09;;;;;;;7.00;4.93;;;2.80;99.90;;;;;;5032174;28;20415;-71
2020/12/08 03:52:35;;;;;;;9.32;5.45;;;2.90;99.90;;;;;;5032177;28;20041;-71
2020/12/08 03:55:01;;;;;;;10.52;5.50;;;2.90;99.90;;;;;;5031936;28;20043;-71
2020/12/08 03:57:27;;;;;;;11.25;5.72;;;2.80;99.90;;;;;;5032017;28;20037;-71
2020/12/08 03:59:53;;;;;;;7.80;5.32;;;2.80;99.90;;;;;;5032145;28;20152;-71
2020/12/08 04:02:19;;;;;;;8.65;5.05;;;2.80;99.90;;;;;;5032611;28;20516;-71
2020/12/08 04:04:45;;;;;;;9.82;5.25;;;2.80;99.90;;;;;;5032105;28;20044;-71
2020/12/08 04:07:11;;;;;;;9.02;4.68;;;2.80;99.90;;;;;;5031975;28;20080;-71
2020/12/08 04:09:37;;;;;;;7.75;4.53;;;2.80;99.90;;;;;;5031831;28;20060;-71
2020/12/08 04:12:03;;;;;;;6.55;4.60;;;2.80;99.90;;;;;;5031047;28;20041;-71
2020/12/08 04:14:29;;;;;;;9.68;5.28;;;2.80;99.90;;;;;;5032071;28;20071;-71
2020/12/08 04:16:55;;;;;;;8.23;4.88;;;2.80;99.90;;;;;;5031974;28;20038;-71
2020/12/08 04:19:21;;;;;;;7.95;4.47;;;2.90;99.90;;;;;;5031914;28;20544;-71
2020/12/08 04:21:46;;;;;;;6.28;4.13;;;2.80;99.90;;;;;;5031829;28;20060;-71
2020/12/08 04:24:12;;;;;;;7.28;4.28;;;2.80;99.90;;;;;;5032131;28;20399;-71
2020/12/08 04:26:38;;;;;;;6.28;4.20;;;2.80;99.90;;;;;;5031883;28;20518;-71
2020/12/08 04:29:04;;;;;;;6.05;4.07;;;2.80;99.90;;;;;;5030892;28;20037;-71
2020/12/08 04:31:30;;;;;;;5.05;3.53;;;2.80;99.90;;;;;;5031869;28;20045;-71
2020/12/08 04:33:56;;;;;;;5.10;3.65;;;2.90;99.90;;;;;;5031453;28;20087;-71
2020/12/08 04:36:23;;;;;;;6.03;3.75;;;3.00;99.90;;;;;;5031936;28;20041;-71
2020/12/08 04:38:50;;;;;;;6.70;3.78;;;2.90;99.90;;;;;;5032187;28;20064;-71
2020/12/08 04:41:24;;;;;;;6.97;4.20;;;2.80;99.90;;;;;;5031252;28;20041;-71
2020/12/08 04:43:51;;;;;;;5.50;3.60;;;2.80;99.90;;;;;;5032329;28;20041;-71
2020/12/08 04:46:19;;;;;;;4.80;3.55;;;2.90;99.90;;;;;;5031656;28;20040;-71
2020/12/08 04:48:46;;;;;;;5.32;3.80;;;2.90;99.90;;;;;;5031242;28;20388;-71
2020/12/08 04:51:11;;;;;;;5.88;3.78;;;2.80;99.90;;;;;;5030835;28;20139;-71
2020/12/08 04:53:37;;;;;;;4.20;3.35;;;2.90;99.90;;;;;;5031829;28;20474;-71
2020/12/08 04:56:03;;;;;;;6.18;3.75;;;2.80;99.90;;;;;;5031606;28;20041;-71
2020/12/08 04:58:30;;;;;;;7.68;5.10;;;2.80;99.90;;;;;;5031677;28;20069;-71
2020/12/08 05:00:55;;;;;;;7.93;5.22;;;2.90;99.90;;;;;;5031068;28;20041;-71
2020/12/08 05:03:23;;;;;;;7.20;5.50;;;2.80;99.90;;;;;;5031916;28;20076;-71
2020/12/08 05:05:49;;;;;;;6.65;5.20;;;2.80;99.90;;;;;;5031564;28;20038;-71
2020/12/08 05:08:15;;;;;;;8.48;5.55;;;2.90;99.90;;;;;;5031308;28;20048;-71
2020/12/08 05:10:41;;;;;;;6.63;5.10;;;2.90;99.90;;;;;;5031114;28;20048;-71
2020/12/08 05:13:15;;;;;;;7.45;5.20;;;2.90;99.90;;;;;;5031400;28;20041;-71
2020/12/08 05:15:41;;;;;;;13.27;9.27;;;2.90;99.90;;;;;;5031371;28;20045;-71
2020/12/08 05:18:08;;;;;;;11.48;7.38;;;3.00;99.90;;;;;;5031336;28;20033;-71
2020/12/08 05:20:34;;;;;;;12.80;8.40;;;2.90;99.90;;;;;;5030864;28;20127;-72
2020/12/08 05:23:00;;;;;;;12.20;8.52;;;3.00;99.90;;;;;;5030719;28;20084;-71
2020/12/08 05:25:28;;;;;;;11.98;7.07;;;2.90;99.90;;;;;;5031193;28;20056;-71
2020/12/08 05:27:56;;;;;;;10.50;6.57;;;2.90;99.90;;;;;;5031688;28;20037;-71
2020/12/08 05:30:24;;;;;;;11.82;7.40;;;2.90;99.90;;;;;;5031224;28;20049;-71
2020/12/08 05:32:50;;;;;;;12.00;7.22;;;2.90;99.90;;;;;;5031289;28;20072;-71
2020/12/08 05:35:25;;;;;;;12.23;6.80;;;3.00;99.90;;;;;;5029239;28;20583;-72
2020/12/08 05:37:53;;;;;;;8.07;5.88;;;3.00;99.90;;;;;;5028741;28;20042;-70
2020/12/08 05:40:24;;;;;;;10.20;6.18;;;2.90;99.90;;;;;;5030429;28;20179;-70
2020/12/08 05:42:51;;;;;;;;;;;3.10;99.90;;;;;;5033818;28;20524;-70
2020/12/08 05:45:21;;;;;;;11.18;6.93;;;3.00;99.90;;;;;;5034048;28;19944;-70
2020/12/08 05:47:51;;;;;;;12.95;7.15;;;3.00;99.90;;;;;;5033631;28;20049;-70
2020/12/08 05:50:20;;;;;;;11.90;7.97;;;3.00;99.90;;;;;;5033471;28;20515;-70
2020/12/08 05:52:55;;;;;;;17.45;10.57;;;3.00;99.90;;;;;;5034858;28;20500;-70
2020/12/08 05:55:31;;;;;;;14.02;9.15;;;3.00;99.90;;;;;;5015034;28;20045;-70
2020/12/08 05:58:06;;;;;;;16.15;9.70;;;3.00;99.90;;;;;;5015036;28;20041;-70
2020/12/08 06:00:33;;;;;;;13.90;9.32;;;3.00;99.90;;;;;;5023605;28;20072;-69
2020/12/08 06:03:12;;;;;;;11.52;7.97;;;3.00;99.90;;;;;;5027804;28;20077;-69
2020/12/08 06:05:40;;;;;;;9.73;7.13;;;3.00;99.90;;;;;;5033301;28;20095;-69
2020/12/08 06:08:17;;;;;;;11.70;8.02;;;3.00;99.90;;;;;;5034178;28;20041;-69
2020/12/08 06:10:52;;;;;;;8.68;4.93;;;3.10;99.90;;;;;;5032967;28;20080;-69
2020/12/08 06:13:33;;;;;;;6.93;4.65;;;3.10;99.90;;;;;;5033461;28;20349;-69
2020/12/08 06:16:01;;;;;;;5.45;3.97;;;3.00;99.90;;;;;;5034086;28;20076;-69
2020/12/08 06:18:31;;;;;;;6.68;3.63;;;3.00;99.90;;;;;;5033933;28;20099;-69
2020/12/08 06:20:58;;;;;;;4.90;3.83;;;3.00;99.90;;;;;;5033945;28;20076;-69
2020/12/08 06:23:24;;;;;;;5.10;3.58;;;3.00;99.90;;;;;;5032366;28;20048;-69
2020/12/08 06:26:00;;;;;;;6.22;3.83;;;3.10;99.90;;;;;;5033132;28;20041;-69
2020/12/08 06:28:27;;;;;;;4.45;3.50;;;2.90;99.90;;;;;;5034186;28;20053;-69
2020/12/08 06:31:03;;;;;;;4.97;3.92;;;3.00;99.90;;;;;;5032194;28;20041;-71
2020/12/08 06:33:30;;;;;;;4.60;3.53;;;3.00;99.90;;;;;;5033491;28;20045;-70
2020/12/08 06:36:01;;;;;;;5.93;4.10;;;2.90;99.90;;;;;;5034033;28;20048;-70
2020/12/08 06:38:28;;;;;;;4.75;3.75;;;3.00;99.90;;;;;;5033278;28;20045;-70
2020/12/08 06:40:55;;;;;;;5.82;4.20;;;3.00;99.90;;;;;;5033592;28;20080;-70
2020/12/08 06:43:21;;;;;;;5.13;3.90;;;3.10;99.90;;;;;;5033528;28;20046;-70
2020/12/08 06:45:48;;;;;;;4.95;3.60;;;3.10;99.90;;;;;;5031831;28;20038;-70
2020/12/08 06:48:21;;;;;;;4.90;3.63;;;3.00;99.90;;;;;;5030887;28;20045;-70
2020/12/08 06:50:48;;;;;;;8.38;3.72;;;3.10;99.90;;;;;;5031993;28;20066;-70
2020/12/08 06:53:15;;;;;;;12.70;4.13;;;3.10;99.90;;;;;;5032825;28;20029;-70
2020/12/08 06:55:48;;;;;;;4.15;3.60;;;3.10;99.90;;;;;;5032142;28;20132;-69
2020/12/08 06:58:15;;;;;;;4.18;3.10;;;3.10;99.90;;;;;;5032225;28;20036;-69
2020/12/08 07:00:44;;;;;;;4.45;3.70;;;3.00;99.90;;;;;;5032173;28;20042;-69
2020/12/08 07:03:11;;;;;;;5.70;4.20;;;3.00;99.90;;;;;;5032656;28;20041;-70
2020/12/08 07:05:37;;;;;;;15.10;10.10;;;3.10;99.90;;;;;;5032416;28;20123;-69
2020/12/08 07:08:05;;;;;;;15.05;10.98;;;3.10;99.90;;;;;;5031120;28;20038;-70
2020/12/08 07:10:40;;;;;;;14.98;10.45;;;3.20;99.90;;;;;;5031950;28;20049;-70
2020/12/08 07:13:14;;;;;;;16.13;9.65;;;3.20;99.90;;;;;;5029400;28;20041;-70
2020/12/08 07:15:41;;;;;;;27.08;20.73;;;3.20;99.90;;;;;;5031017;28;20071;-70
2020/12/08 07:18:09;;;;;;;15.95;11.13;;;3.20;99.90;;;;;;5031310;28;20379;-70
2020/12/08 07:20:37;;;;;;;16.45;12.20;;;3.20;99.90;;;;;;5031667;28;20042;-69
2020/12/08 07:23:05;;;;;;;23.65;14.43;;;3.20;99.90;;;;;;5030783;28;20120;-69
2020/12/08 07:25:32;;;;;;;17.80;11.65;;;3.30;99.90;;;;;;5031629;28;20132;-69
2020/12/08 07:27:59;;;;;;;19.90;14.93;;;3.30;99.90;;;;;;5036515;28;20059;-70
2020/12/08 07:30:27;;;;;;;16.73;11.25;;;3.30;99.90;;;;;;5037721;28;20037;-69
2020/12/08 07:32:54;;;;;;;9.63;6.78;;;3.30;99.90;;;;;;5031770;28;20120;-69
2020/12/08 07:35:28;;;;;;;7.20;5.72;;;3.30;99.90;;;;;;5031299;28;20041;-69
2020/12/08 07:37:59;;;;;;;8.95;5.85;;;3.20;99.90;;;;;;5032330;28;20585;-69
2020/12/08 07:40:32;;;;;;;9.13;5.82;;;3.30;99.90;;;;;;5030837;28;20081;-70
2020/12/08 07:42:59;;;;;;;7.03;5.10;;;3.30;99.90;;;;;;5030294;28;20128;-69
2020/12/08 07:45:25;;;;;;;6.68;5.20;;;3.30;99.90;;;;;;5021904;28;20057;-71
2020/12/08 07:47:53;;;;;;;6.80;4.72;;;3.20;99.90;;;;;;5025991;28;20044;-69
2020/12/08 07:50:30;;;;;;;6.88;4.30;;;3.20;99.90;;;;;;5028119;28;20677;-69
2020/12/08 07:53:05;;;;;;;5.78;4.28;;;3.30;99.90;;;;;;5029983;28;20128;-70
2020/12/08 07:55:41;;;;;;;8.95;4.78;;;3.30;99.90;;;;;;5031078;28;20204;-69
2020/12/08 07:58:08;;;;;;;6.57;5.00;;;3.30;99.90;;;;;;5031087;28;20068;-69
2020/12/08 08:00:35;;;;;;;6.57;4.78;;;3.30;99.90;;;;;;5030368;28;20049;-69
2020/12/08 08:03:02;;;;;;;8.90;6.38;;;3.30;99.90;;;;;;5029599;28;20167;-70
2020/12/08 08:05:28;;;;;;;10.93;6.47;;;3.50;99.90;;;;;;5029009;28;20103;-69
2020/12/08 08:07:54;;;;;;;7.47;5.97;;;3.40;99.90;;;;;;5029292;28;20048;-72
2020/12/08 08:10:21;;;;;;;6.53;5.13;;;3.50;99.90;;;;;;5027507;28;20041;-72
2020/12/08 08:12:47;;;;;;;9.00;5.75;;;3.50;99.90;;;;;;5029550;28;20500;-71
2020/12/08 08:15:13;;;;;;;6.72;6.03;;;3.60;99.90;;;;;;5030295;28;20038;-72
2020/12/08 08:17:39;;;;;;;8.18;6.55;;;3.60;99.90;;;;;;5029607;28;20045;-71
2020/12/08 08:20:06;;;;;;;6.85;6.15;;;3.60;99.90;;;;;;5028787;28;20041;-69
2020/12/08 08:22:32;;;;;;;10.68;8.60;;;3.60;99.90;;;;;;5030016;28;20120;-70
2020/12/08 08:24:58;;;;;;;21.42;17.73;;;3.70;99.90;;;;;;5029085;28;20051;-69
2020/12/08 08:27:24;;;;;;;23.45;17.10;;;3.80;99.90;;;;;;5029494;28;20471;-69
2020/12/08 08:29:50;;;;;;;20.30;16.48;;;3.90;99.90;;;;;;5030778;28;20052;-70
2020/12/08 08:32:16;;;;;;;19.55;15.40;;;3.90;99.90;;;;;;5027728;28;20427;-69
2020/12/08 08:34:42;;;;;;;23.40;15.45;;;4.00;99.90;;;;;;5030036;28;20122;-70
2020/12/08 08:37:08;;;;;;;23.58;17.60;;;4.10;99.90;;;;;;5030288;28;20537;-69
2020/12/08 08:39:34;;;;;;;48.88;29.80;;;4.20;99.90;;;;;;5030521;28;20049;-72
2020/12/08 08:42:00;;;;;;;27.08;19.48;;;4.30;99.90;;;;;;5024762;28;21026;-71
2020/12/08 08:44:25;;;;;;;28.55;18.50;;;4.20;99.90;;;;;;5030128;28;20476;-70
2020/12/08 08:46:51;;;;;;;27.10;18.42;;;4.50;99.90;;;;;;5030172;28;20400;-69
2020/12/08 08:49:17;;;;;;;27.10;19.13;;;4.50;99.90;;;;;;5029965;28;20053;-69
2020/12/08 08:51:46;;;;;;;17.05;12.18;;;4.40;99.90;;;;;;5029972;28;20041;-69
2020/12/08 08:54:13;;;;;;;21.25;13.77;;;4.40;99.90;;;;;;5030231;28;20586;-69
2020/12/08 08:56:39;;;;;;;20.48;14.40;;;4.60;99.90;;;;;;5028939;28;20072;-69
2020/12/08 08:59:05;;;;;;;12.13;8.85;;;4.90;99.90;;;;;;5031164;28;20045;-68
2020/12/08 09:01:33;;;;;;;12.82;9.55;;;5.00;99.90;;;;;;5029885;28;20041;-69
2020/12/08 09:03:59;;;;;;;16.13;11.45;;;5.10;99.90;;;;;;5026716;28;20029;-69
2020/12/08 09:06:25;;;;;;;23.48;13.93;;;5.30;99.90;;;;;;5029678;28;20385;-69
2020/12/08 09:08:51;;;;;;;6.30;2.75;;;5.30;99.90;;;;;;5030026;28;20040;-70
2020/12/08 09:11:17;;;;;;;9.38;5.35;;;5.20;99.90;;;;;;5029506;28;20041;-69
2020/12/08 09:13:43;;;;;;;8.57;4.40;;;5.30;99.90;;;;;;5029130;28;20476;-69
2020/12/08 09:16:10;;;;;;;4.50;3.83;;;5.40;99.90;;;;;;5032734;28;20069;-69
2020/12/08 09:18:36;;;;;;;6.13;4.60;;;5.30;99.90;;;;;;5034405;28;20080;-70
2020/12/08 09:21:02;;;;;;;7.00;5.22;;;5.40;99.90;;;;;;5032909;28;20049;-69
2020/12/08 09:23:28;;;;;;;8.65;5.90;;;5.40;99.90;;;;;;5033562;28;20041;-68
2020/12/08 09:25:55;;;;;;;6.25;5.00;;;5.50;99.90;;;;;;5033219;28;20084;-69
2020/12/08 09:28:25;;;;;;;3.47;2.25;;;5.40;99.90;;;;;;5033760;28;20038;-68
2020/12/08 09:30:52;;;;;;;3.15;1.60;;;5.20;99.90;;;;;;5033080;28;20049;-68
2020/12/08 09:33:17;;;;;;;4.13;2.78;;;5.20;99.90;;;;;;5030392;28;20069;-69
2020/12/08 09:35:43;;;;;;;2.47;1.60;;;5.20;99.90;;;;;;5032702;28;20107;-69
2020/12/08 09:38:10;;;;;;;1.40;1.30;;;5.10;99.90;;;;;;5025938;28;20041;-68
2020/12/08 09:40:37;;;;;;;1.33;1.17;;;5.20;99.90;;;;;;5032182;28;20195;-69
2020/12/08 09:43:03;;;;;;;1.10;1.00;;;5.10;99.90;;;;;;5032150;28;20569;-70
2020/12/08 09:45:29;;;;;;;1.30;1.02;;;5.00;99.90;;;;;;5032445;28;20174;-71
2020/12/08 09:47:56;;;;;;;5.68;3.42;;;5.00;99.90;;;;;;5030333;28;20045;-71
2020/12/08 09:50:21;;;;;;;1.65;1.00;;;4.70;99.90;;;;;;5032000;28;20053;-70
2020/12/08 09:52:47;;;;;;;0.70;0.60;;;4.70;99.90;;;;;;5031898;28;20033;-69
2020/12/08 09:55:13;;;;;;;1.13;0.88;;;4.70;99.90;;;;;;5032022;28;20041;-70
2020/12/08 09:57:40;;;;;;;3.38;1.80;;;4.70;99.90;;;;;;5033159;28;20037;-70
2020/12/08 10:00:07;;;;;;;2.13;1.30;;;4.70;99.90;;;;;;5033852;28;20033;-70
2020/12/08 10:02:34;;;;;;;3.20;1.60;;;4.80;99.90;;;;;;5033165;28;20037;-70
2020/12/08 10:05:00;;;;;;;0.90;0.80;;;4.80;99.90;;;;;;5032495;28;20053;-70
2020/12/08 10:07:26;;;;;;;0.63;0.40;;;4.70;99.90;;;;;;5029893;28;20052;-70
2020/12/08 10:09:52;;;;;;;0.40;0.40;;;4.70;99.90;;;;;;5032898;28;20041;-70
2020/12/08 10:12:18;;;;;;;0.73;0.40;;;4.70;99.90;;;;;;5033185;28;20045;-70
2020/12/08 10:14:45;;;;;;;0.13;0.13;;;4.70;99.90;;;;;;5032690;28;20041;-69
2020/12/08 10:17:12;;;;;;;1.08;0.65;;;4.70;99.90;;;;;;5032925;28;20116;-70
2020/12/08 10:19:39;;;;;;;0.80;0.60;;;4.70;99.90;;;;;;5033151;28;20566;-69
2020/12/08 10:22:06;;;;;;;1.10;0.55;;;4.70;99.90;;;;;;5032800;28;20033;-69
2020/12/08 10:24:32;;;;;;;0.60;0.60;;;4.80;99.90;;;;;;5032326;28;20179;-69
2020/12/08 10:26:58;;;;;;;0.70;0.70;;;4.80;99.90;;;;;;5030954;28;20111;-69
2020/12/08 10:29:24;;;;;;;0.40;0.40;;;4.80;99.90;;;;;;5032125;28;20050;-69
2020/12/08 10:31:51;;;;;;;2.35;0.60;;;4.70;99.90;;;;;;5030825;28;20121;-69
2020/12/08 10:34:19;;;;;;;0.35;0.30;;;4.80;99.90;;;;;;5031221;28;20045;-68
2020/12/08 10:36:46;;;;;;;1.55;1.10;;;4.90;99.90;;;;;;5030915;28;20161;-69
2020/12/08 10:39:13;;;;;;;1.80;1.23;;;5.00;99.90;;;;;;5032537;28;20046;-69
2020/12/08 10:41:39;;;;;;;0.70;0.68;;;5.00;99.90;;;;;;5032478;28;20041;-68
2020/12/08 10:44:06;;;;;;;0.45;0.45;;;5.10;99.90;;;;;;5031547;28;20080;-69
2020/12/08 10:46:33;;;;;;;0.70;0.70;;;5.10;99.90;;;;;;5031391;28;20029;-70
2020/12/08 10:49:00;;;;;;;5.78;3.80;;;5.10;99.90;;;;;;5028454;28;20577;-71
2020/12/08 10:51:25;;;;;;;0.85;0.68;;;5.20;99.90;;;;;;5029563;28;20037;-69
2020/12/08 10:53:51;;;;;;;0.30;0.30;;;5.20;99.90;;;;;;5031788;28;20412;-69
2020/12/08 10:56:25;;;;;;;0.60;0.30;;;5.10;99.90;;;;;;5030441;28;20046;-70
2020/12/08 10:58:52;;;;;;;2.10;1.58;;;5.10;99.90;;;;;;5030521;28;20492;-70
2020/12/08 11:01:21;;;;;;;0.68;0.30;;;5.10;99.90;;;;;;5031915;28;20037;-70
2020/12/08 11:03:49;;;;;;;0.47;0.38;;;5.10;99.90;;;;;;5022226;28;20083;-69
2020/12/08 11:06:25;;;;;;;0.60;0.50;;;5.10;99.90;;;;;;5031226;28;20046;-71
2020/12/08 11:08:53;;;;;;;0.82;0.80;;;5.30;99.90;;;;;;5032306;28;20116;-73
2020/12/08 11:11:27;;;;;;;0.30;0.30;;;5.20;99.90;;;;;;5031790;28;20071;-70
2020/12/08 11:13:54;;;;;;;0.38;0.38;;;5.10;99.90;;;;;;5031779;28;20048;-71
2020/12/08 11:16:20;;;;;;;0.55;0.38;;;5.20;99.90;;;;;;5029237;28;20044;-71
2020/12/08 11:18:46;;;;;;;0.80;0.70;;;5.20;99.90;;;;;;5031613;28;20037;-70
2020/12/08 11:21:13;;;;;;;0.75;0.68;;;5.10;99.90;;;;;;5029721;28;20400;-70
2020/12/08 11:23:40;;;;;;;0.50;0.40;;;5.10;99.90;;;;;;5030879;28;20041;-71
2020/12/08 11:26:13;;;;;;;0.65;0.65;;;5.10;99.90;;;;;;5028682;28;20132;-70
2020/12/08 11:28:40;;;;;;;0.90;0.75;;;5.20;99.90;;;;;;5029813;28;20037;-71
2020/12/08 11:31:06;;;;;;;3.35;2.53;;;5.20;99.90;;;;;;5030182;28;20068;-71
2020/12/08 11:33:33;;;;;;;0.50;0.50;;;5.30;99.90;;;;;;5030286;28;20054;-70
2020/12/08 11:36:00;;;;;;;0.50;0.45;;;5.20;99.90;;;;;;5030593;28;20076;-70
2020/12/08 11:38:26;;;;;;;0.73;0.50;;;5.20;99.90;;;;;;5028940;28;20087;-70
2020/12/08 11:40:52;;;;;;;0.77;0.77;;;5.20;99.90;;;;;;5029789;28;20033;-70
2020/12/08 11:43:18;;;;;;;0.90;0.60;;;5.30;99.90;;;;;;5029613;28;20693;-70
2020/12/08 11:45:46;;;;;;;0.50;0.50;;;5.20;99.90;;;;;;5030286;28;20041;-71
2020/12/08 11:48:12;;;;;;;0.60;0.50;;;5.20;99.90;;;;;;5026515;28;20049;-71
2020/12/08 11:50:39;;;;;;;0.70;0.68;;;5.20;99.90;;;;;;5028963;28;20190;-71
2020/12/08 11:53:05;;;;;;;0.73;0.70;;;5.30;99.90;;;;;;5029257;28;20053;-71
2020/12/08 11:55:31;;;;;;;1.67;1.20;;;5.30;99.90;;;;;;5028845;28;20127;-71
2020/12/08 11:57:57;;;;;;;2.40;0.93;;;5.40;99.90;;;;;;5029228;28;20038;-71
2020/12/08 12:00:23;;;;;;;2.22;1.50;;;5.40;99.90;;;;;;5045304;28;20476;-69
2020/12/08 12:02:49;;;;;;;3.33;2.10;;;5.40;99.90;;;;;;5029528;28;20040;-70
2020/12/08 12:05:14;;;;;;;2.08;1.30;;;5.20;99.90;;;;;;5030570;28;20519;-70
2020/12/08 12:07:40;;;;;;;0.70;0.70;;;5.10;99.90;;;;;;5029089;28;20033;-70
2020/12/08 12:10:06;;;;;;;1.00;0.95;;;5.10;99.90;;;;;;5028199;28;20099;-70
2020/12/08 12:12:32;;;;;;;1.00;0.90;;;5.10;99.90;;;;;;5021124;28;20049;-70
2020/12/08 12:14:58;;;;;;;1.25;0.95;;;5.00;99.90;;;;;;5025676;28;20995;-70
2020/12/08 12:17:24;;;;;;;0.85;0.85;;;4.90;99.90;;;;;;5029614;28;20126;-70
2020/12/08 12:19:50;;;;;;;3.70;1.23;;;4.90;99.90;;;;;;5029384;28;20583;-72
2020/12/08 12:22:16;;;;;;;1.35;1.25;;;4.90;99.90;;;;;;5029833;28;20050;-72
2020/12/08 12:24:41;;;;;;;1.80;1.48;;;4.90;99.90;;;;;;5029915;28;20102;-72
2020/12/08 12:27:08;;;;;;;1.27;1.17;;;4.80;99.90;;;;;;5029345;28;20033;-72
2020/12/08 12:29:33;;;;;;;3.85;1.88;;;4.80;99.90;;;;;;5029724;28;20560;-69
2020/12/08 12:31:59;;;;;;;4.65;2.45;;;4.80;99.90;;;;;;5030666;28;20049;-69
2020/12/08 12:34:25;;;;;;;13.20;7.20;;;4.70;99.90;;;;;;5029481;28;20044;-69
2020/12/08 12:36:52;;;;;;;5.00;2.92;;;4.80;99.90;;;;;;5027332;28;20404;-69
2020/12/08 12:39:18;;;;;;;4.15;3.30;;;4.80;99.90;;;;;;5030248;28;20037;-69
2020/12/08 12:41:44;;;;;;;2.13;1.90;;;4.90;99.90;;;;;;5029164;28;20053;-69
2020/12/08 12:44:10;;;;;;;3.10;1.77;;;4.90;99.90;;;;;;5027795;28;20498;-69
2020/12/08 12:46:36;;;;;;;1.20;1.10;;;5.00;99.90;;;;;;5030024;28;20102;-70
2020/12/08 12:49:03;;;;;;;2.17;1.30;;;4.90;99.90;;;;;;5030210;28;20041;-70